sensor_id;sensor_type;location;lat;lon;timestamp;P1;durP1;ratioP1;P2;durP2;ratioP2
5819;SDS011;2936;47.348;9.640;2022-07-23T00:00:50;16.83;;;13.93;;
5819;SDS011;2936;47.348;9.640;2022-07-23T00:03:17;15.20;;;12.93;;
5819;SDS011;2936;47.348;9.640;2022-07-23T00:05:45;16.73;;;13.40;;
5819;SDS011;2936;47.348;9.640;2022-07-23T00:08:13;15.10;;;12.67;;
5819;SDS011;2936;47.348;9.640;2022-07-23T00:10:41;17.07;;;11.80;;
5819;SDS011;2936;47.348;9.640;2022-07-23T00:13:08;16.13;;;10.70;;
5819;SDS011;2936;47.348;9.640;2022-07-23T00:15:36;14.67;;;12.30;;
5819;SDS011;2936;47.348;9.640;2022-07-23T00:18:03;13.70;;;12.30;;
5819;SDS011;2936;47.348;9.640;2022-07-23T00:20:31;13.80;;;11.70;;
5819;SDS011;2936;47.348;9.640;2022-07-23T00:22:58;16.10;;;12.83;;
5819;SDS011;2936;47.348;9.640;2022-07-23T00:25:27;15.07;;;11.80;;
5819;SDS011;2936;47.348;9.640;2022-07-23T00:27:54;14.93;;;12.03;;
5819;SDS011;2936;47.348;9.640;2022-07-23T00:30:22;17.07;;;12.20;;
5819;SDS011;2936;47.348;9.640;2022-07-23T00:32:51;15.97;;;13.13;;
5819;SDS011;2936;47.348;9.640;2022-07-23T00:35:19;16.60;;;13.50;;
5819;SDS011;2936;47.348;9.640;2022-07-23T00:37:46;15.70;;;13.23;;
5819;SDS011;2936;47.348;9.640;2022-07-23T00:40:14;14.03;;;12.20;;
5819;SDS011;2936;47.348;9.640;2022-07-23T00:42:43;15.70;;;13.23;;
5819;SDS011;2936;47.348;9.640;2022-07-23T00:45:10;20.10;;;14.33;;
5819;SDS011;2936;47.348;9.640;2022-07-23T00:47:38;24.83;;;15.37;;
5819;SDS011;2936;47.348;9.640;2022-07-23T00:50:06;19.13;;;13.93;;
5819;SDS011;2936;47.348;9.640;2022-07-23T00:52:34;21.87;;;14.97;;
5819;SDS011;2936;47.348;9.640;2022-07-23T00:55:02;19.77;;;14.80;;
5819;SDS011;2936;47.348;9.640;2022-07-23T00:57:30;21.03;;;15.07;;
5819;SDS011;2936;47.348;9.640;2022-07-23T00:59:59;18.93;;;14.70;;
5819;SDS011;2936;47.348;9.640;2022-07-23T01:02:26;19.53;;;14.40;;
5819;SDS011;2936;47.348;9.640;2022-07-23T01:04:54;24.07;;;14.67;;
5819;SDS011;2936;47.348;9.640;2022-07-23T01:07:21;20.63;;;14.23;;
5819;SDS011;2936;47.348;9.640;2022-07-23T01:09:49;16.60;;;14.90;;
5819;SDS011;2936;47.348;9.640;2022-07-23T01:12:17;16.33;;;14.67;;
5819;SDS011;2936;47.348;9.640;2022-07-23T01:14:45;16.73;;;14.93;;
5819;SDS011;2936;47.348;9.640;2022-07-23T01:17:13;16.27;;;14.53;;
5819;SDS011;2936;47.348;9.640;2022-07-23T01:19:41;27.00;;;17.07;;
5819;SDS011;2936;47.348;9.640;2022-07-23T01:22:08;19.53;;;16.77;;
5819;SDS011;2936;47.348;9.640;2022-07-23T01:24:38;19.80;;;16.90;;
5819;SDS011;2936;47.348;9.640;2022-07-23T01:27:05;20.90;;;16.40;;
5819;SDS011;2936;47.348;9.640;2022-07-23T01:29:33;21.17;;;16.40;;
5819;SDS011;2936;47.348;9.640;2022-07-23T01:32:00;18.40;;;16.40;;
5819;SDS011;2936;47.348;9.640;2022-07-23T01:34:27;21.97;;;18.03;;
5819;SDS011;2936;47.348;9.640;2022-07-23T01:36:55;19.90;;;16.10;;
5819;SDS011;2936;47.348;9.640;2022-07-23T01:39:22;22.20;;;16.60;;
5819;SDS011;2936;47.348;9.640;2022-07-23T01:41:51;18.10;;;15.60;;
5819;SDS011;2936;47.348;9.640;2022-07-23T01:44:19;24.80;;;16.77;;
5819;SDS011;2936;47.348;9.640;2022-07-23T01:46:46;19.40;;;15.60;;
5819;SDS011;2936;47.348;9.640;2022-07-23T01:49:13;19.50;;;15.63;;
5819;SDS011;2936;47.348;9.640;2022-07-23T01:51:41;16.67;;;14.93;;
5819;SDS011;2936;47.348;9.640;2022-07-23T01:54:22;19.73;;;16.37;;
5819;SDS011;2936;47.348;9.640;2022-07-23T01:56:51;18.70;;;14.53;;
5819;SDS011;2936;47.348;9.640;2022-07-23T01:59:18;19.80;;;15.00;;
5819;SDS011;2936;47.348;9.640;2022-07-23T02:01:46;16.47;;;12.87;;
5819;SDS011;2936;47.348;9.640;2022-07-23T02:04:13;17.50;;;14.33;;
5819;SDS011;2936;47.348;9.640;2022-07-23T02:06:41;19.73;;;14.70;;
5819;SDS011;2936;47.348;9.640;2022-07-23T02:09:08;17.17;;;13.70;;
5819;SDS011;2936;47.348;9.640;2022-07-23T02:11:36;19.63;;;14.53;;
5819;SDS011;2936;47.348;9.640;2022-07-23T02:14:04;20.50;;;15.10;;
5819;SDS011;2936;47.348;9.640;2022-07-23T02:16:32;16.80;;;13.47;;
5819;SDS011;2936;47.348;9.640;2022-07-23T02:18:59;14.77;;;12.57;;
5819;SDS011;2936;47.348;9.640;2022-07-23T02:21:27;16.10;;;13.17;;
5819;SDS011;2936;47.348;9.640;2022-07-23T02:23:54;14.73;;;12.50;;
5819;SDS011;2936;47.348;9.640;2022-07-23T02:26:21;12.67;;;11.37;;
5819;SDS011;2936;47.348;9.640;2022-07-23T02:28:49;13.80;;;11.33;;
5819;SDS011;2936;47.348;9.640;2022-07-23T02:31:19;10.30;;;9.43;;
5819;SDS011;2936;47.348;9.640;2022-07-23T02:33:46;10.77;;;9.67;;
5819;SDS011;2936;47.348;9.640;2022-07-23T02:36:14;14.30;;;9.33;;
5819;SDS011;2936;47.348;9.640;2022-07-23T02:38:41;10.20;;;9.20;;
5819;SDS011;2936;47.348;9.640;2022-07-23T02:41:09;9.00;;;8.20;;
5819;SDS011;2936;47.348;9.640;2022-07-23T02:43:36;11.50;;;9.20;;
5819;SDS011;2936;47.348;9.640;2022-07-23T02:46:03;10.00;;;8.70;;
5819;SDS011;2936;47.348;9.640;2022-07-23T02:48:32;9.90;;;9.00;;
5819;SDS011;2936;47.348;9.640;2022-07-23T02:51:00;13.73;;;9.07;;
5819;SDS011;2936;47.348;9.640;2022-07-23T02:53:27;10.23;;;9.27;;
5819;SDS011;2936;47.348;9.640;2022-07-23T02:55:54;8.43;;;7.77;;
5819;SDS011;2936;47.348;9.640;2022-07-23T02:58:22;9.43;;;8.53;;
5819;SDS011;2936;47.348;9.640;2022-07-23T03:00:50;11.73;;;7.90;;
5819;SDS011;2936;47.348;9.640;2022-07-23T03:03:17;8.17;;;7.37;;
5819;SDS011;2936;47.348;9.640;2022-07-23T03:05:46;9.57;;;8.53;;
5819;SDS011;2936;47.348;9.640;2022-07-23T03:08:13;10.07;;;8.50;;
5819;SDS011;2936;47.348;9.640;2022-07-23T03:10:41;8.57;;;7.60;;
5819;SDS011;2936;47.348;9.640;2022-07-23T03:13:08;8.63;;;7.83;;
5819;SDS011;2936;47.348;9.640;2022-07-23T03:15:36;8.70;;;7.80;;
5819;SDS011;2936;47.348;9.640;2022-07-23T03:18:03;8.60;;;7.80;;
5819;SDS011;2936;47.348;9.640;2022-07-23T03:20:31;11.50;;;7.87;;
5819;SDS011;2936;47.348;9.640;2022-07-23T03:22:59;11.13;;;8.57;;
5819;SDS011;2936;47.348;9.640;2022-07-23T03:25:27;7.93;;;7.17;;
5819;SDS011;2936;47.348;9.640;2022-07-23T03:27:54;7.10;;;6.60;;
5819;SDS011;2936;47.348;9.640;2022-07-23T03:30:22;7.30;;;6.70;;
5819;SDS011;2936;47.348;9.640;2022-07-23T03:32:49;8.53;;;7.40;;
5819;SDS011;2936;47.348;9.640;2022-07-23T03:35:17;9.20;;;8.30;;
5819;SDS011;2936;47.348;9.640;2022-07-23T03:37:44;8.10;;;7.40;;
5819;SDS011;2936;47.348;9.640;2022-07-23T03:40:13;9.10;;;8.07;;
5819;SDS011;2936;47.348;9.640;2022-07-23T03:42:41;7.97;;;7.30;;
5819;SDS011;2936;47.348;9.640;2022-07-23T03:45:09;7.83;;;7.20;;
5819;SDS011;2936;47.348;9.640;2022-07-23T03:47:36;10.10;;;9.07;;
5819;SDS011;2936;47.348;9.640;2022-07-23T03:50:04;16.17;;;8.17;;
5819;SDS011;2936;47.348;9.640;2022-07-23T03:52:32;10.03;;;8.43;;
5819;SDS011;2936;47.348;9.640;2022-07-23T03:54:59;8.93;;;7.97;;
5819;SDS011;2936;47.348;9.640;2022-07-23T03:57:28;11.47;;;7.50;;
5819;SDS011;2936;47.348;9.640;2022-07-23T03:59:55;8.40;;;7.60;;
5819;SDS011;2936;47.348;9.640;2022-07-23T04:02:23;8.00;;;7.20;;
5819;SDS011;2936;47.348;9.640;2022-07-23T04:04:50;8.13;;;7.23;;
5819;SDS011;2936;47.348;9.640;2022-07-23T04:07:17;8.97;;;8.10;;
5819;SDS011;2936;47.348;9.640;2022-07-23T04:09:45;8.80;;;8.00;;
5819;SDS011;2936;47.348;9.640;2022-07-23T04:12:12;9.23;;;7.50;;
5819;SDS011;2936;47.348;9.640;2022-07-23T04:14:41;10.17;;;7.57;;
5819;SDS011;2936;47.348;9.640;2022-07-23T04:17:08;9.43;;;7.73;;
5819;SDS011;2936;47.348;9.640;2022-07-23T04:19:36;11.50;;;7.30;;
5819;SDS011;2936;47.348;9.640;2022-07-23T04:22:05;8.83;;;8.03;;
5819;SDS011;2936;47.348;9.640;2022-07-23T04:24:33;11.23;;;7.70;;
5819;SDS011;2936;47.348;9.640;2022-07-23T04:27:01;9.40;;;8.00;;
5819;SDS011;2936;47.348;9.640;2022-07-23T04:29:28;10.00;;;7.57;;
5819;SDS011;2936;47.348;9.640;2022-07-23T04:31:57;9.23;;;7.90;;
5819;SDS011;2936;47.348;9.640;2022-07-23T04:34:25;8.10;;;7.40;;
5819;SDS011;2936;47.348;9.640;2022-07-23T04:36:52;9.03;;;8.10;;
5819;SDS011;2936;47.348;9.640;2022-07-23T04:39:20;9.37;;;7.27;;
5819;SDS011;2936;47.348;9.640;2022-07-23T04:41:47;7.10;;;6.30;;
5819;SDS011;2936;47.348;9.640;2022-07-23T04:44:15;7.43;;;6.40;;
5819;SDS011;2936;47.348;9.640;2022-07-23T04:46:42;6.93;;;6.20;;
5819;SDS011;2936;47.348;9.640;2022-07-23T04:49:11;7.07;;;6.40;;
5819;SDS011;2936;47.348;9.640;2022-07-23T04:51:38;10.43;;;6.33;;
5819;SDS011;2936;47.348;9.640;2022-07-23T04:54:05;7.37;;;6.67;;
5819;SDS011;2936;47.348;9.640;2022-07-23T04:56:33;7.60;;;6.83;;
5819;SDS011;2936;47.348;9.640;2022-07-23T04:59:00;10.23;;;6.90;;
5819;SDS011;2936;47.348;9.640;2022-07-23T05:01:28;9.40;;;7.27;;
5819;SDS011;2936;47.348;9.640;2022-07-23T05:03:55;8.07;;;7.27;;
5819;SDS011;2936;47.348;9.640;2022-07-23T05:06:24;9.13;;;6.70;;
5819;SDS011;2936;47.348;9.640;2022-07-23T05:08:51;8.87;;;7.70;;
5819;SDS011;2936;47.348;9.640;2022-07-23T05:11:20;7.63;;;6.83;;
5819;SDS011;2936;47.348;9.640;2022-07-23T05:13:47;7.67;;;6.87;;
5819;SDS011;2936;47.348;9.640;2022-07-23T05:16:16;7.43;;;6.70;;
5819;SDS011;2936;47.348;9.640;2022-07-23T05:18:44;8.13;;;7.37;;
5819;SDS011;2936;47.348;9.640;2022-07-23T05:21:11;7.33;;;6.70;;
5819;SDS011;2936;47.348;9.640;2022-07-23T05:23:40;14.00;;;8.20;;
5819;SDS011;2936;47.348;9.640;2022-07-23T05:26:07;7.83;;;7.17;;
5819;SDS011;2936;47.348;9.640;2022-07-23T05:28:35;11.27;;;7.60;;
5819;SDS011;2936;47.348;9.640;2022-07-23T05:31:02;8.60;;;7.80;;
5819;SDS011;2936;47.348;9.640;2022-07-23T05:33:30;8.47;;;7.67;;
5819;SDS011;2936;47.348;9.640;2022-07-23T05:35:59;8.83;;;7.80;;
5819;SDS011;2936;47.348;9.640;2022-07-23T05:38:27;8.33;;;7.53;;
5819;SDS011;2936;47.348;9.640;2022-07-23T05:40:56;8.47;;;7.70;;
5819;SDS011;2936;47.348;9.640;2022-07-23T05:43:24;8.20;;;7.50;;
5819;SDS011;2936;47.348;9.640;2022-07-23T05:45:52;8.47;;;7.67;;
5819;SDS011;2936;47.348;9.640;2022-07-23T05:48:19;9.70;;;8.27;;
5819;SDS011;2936;47.348;9.640;2022-07-23T05:50:47;9.20;;;7.60;;
5819;SDS011;2936;47.348;9.640;2022-07-23T05:53:14;9.87;;;7.93;;
5819;SDS011;2936;47.348;9.640;2022-07-23T05:55:41;10.80;;;7.17;;
5819;SDS011;2936;47.348;9.640;2022-07-23T05:58:10;7.50;;;6.80;;
5819;SDS011;2936;47.348;9.640;2022-07-23T06:00:38;8.70;;;7.30;;
5819;SDS011;2936;47.348;9.640;2022-07-23T06:03:05;6.97;;;6.37;;
5819;SDS011;2936;47.348;9.640;2022-07-23T06:05:33;8.53;;;7.73;;
5819;SDS011;2936;47.348;9.640;2022-07-23T06:08:00;7.70;;;6.70;;
5819;SDS011;2936;47.348;9.640;2022-07-23T06:10:27;8.83;;;7.93;;
5819;SDS011;2936;47.348;9.640;2022-07-23T06:12:55;8.17;;;7.47;;
5819;SDS011;2936;47.348;9.640;2022-07-23T06:15:24;7.17;;;6.57;;
5819;SDS011;2936;47.348;9.640;2022-07-23T06:17:51;8.73;;;7.93;;
5819;SDS011;2936;47.348;9.640;2022-07-23T06:20:19;7.73;;;6.93;;
5819;SDS011;2936;47.348;9.640;2022-07-23T06:22:46;8.27;;;7.57;;
5819;SDS011;2936;47.348;9.640;2022-07-23T06:25:13;8.27;;;7.33;;
5819;SDS011;2936;47.348;9.640;2022-07-23T06:27:42;8.37;;;7.67;;
5819;SDS011;2936;47.348;9.640;2022-07-23T06:30:09;8.00;;;7.27;;
5819;SDS011;2936;47.348;9.640;2022-07-23T06:32:39;7.47;;;6.77;;
5819;SDS011;2936;47.348;9.640;2022-07-23T06:35:06;7.30;;;6.70;;
5819;SDS011;2936;47.348;9.640;2022-07-23T06:37:34;10.10;;;7.13;;
5819;SDS011;2936;47.348;9.640;2022-07-23T06:40:01;8.20;;;7.40;;
5819;SDS011;2936;47.348;9.640;2022-07-23T06:42:29;11.93;;;10.70;;
5819;SDS011;2936;47.348;9.640;2022-07-23T06:44:57;24.53;;;7.90;;
5819;SDS011;2936;47.348;9.640;2022-07-23T06:47:24;9.43;;;7.40;;
5819;SDS011;2936;47.348;9.640;2022-07-23T06:49:53;15.67;;;8.33;;
5819;SDS011;2936;47.348;9.640;2022-07-23T06:52:20;11.07;;;6.90;;
5819;SDS011;2936;47.348;9.640;2022-07-23T06:54:48;10.40;;;8.00;;
5819;SDS011;2936;47.348;9.640;2022-07-23T06:57:15;8.97;;;7.33;;
5819;SDS011;2936;47.348;9.640;2022-07-23T06:59:42;9.00;;;6.80;;
5819;SDS011;2936;47.348;9.640;2022-07-23T07:02:10;8.90;;;8.10;;
5819;SDS011;2936;47.348;9.640;2022-07-23T07:04:37;8.53;;;7.83;;
5819;SDS011;2936;47.348;9.640;2022-07-23T07:07:06;7.73;;;7.03;;
5819;SDS011;2936;47.348;9.640;2022-07-23T07:09:34;10.57;;;6.73;;
5819;SDS011;2936;47.348;9.640;2022-07-23T07:12:01;9.63;;;6.80;;
5819;SDS011;2936;47.348;9.640;2022-07-23T07:14:29;7.33;;;6.60;;
5819;SDS011;2936;47.348;9.640;2022-07-23T07:16:56;8.43;;;7.20;;
5819;SDS011;2936;47.348;9.640;2022-07-23T07:19:23;12.53;;;7.40;;
5819;SDS011;2936;47.348;9.640;2022-07-23T07:21:51;6.90;;;6.40;;
5819;SDS011;2936;47.348;9.640;2022-07-23T07:24:19;6.83;;;6.23;;
5819;SDS011;2936;47.348;9.640;2022-07-23T07:26:47;6.87;;;6.33;;
5819;SDS011;2936;47.348;9.640;2022-07-23T07:29:14;7.13;;;6.63;;
5819;SDS011;2936;47.348;9.640;2022-07-23T07:31:41;7.20;;;6.50;;
5819;SDS011;2936;47.348;9.640;2022-07-23T07:34:09;12.50;;;6.60;;
5819;SDS011;2936;47.348;9.640;2022-07-23T07:36:36;8.00;;;7.30;;
5819;SDS011;2936;47.348;9.640;2022-07-23T07:39:04;7.67;;;6.93;;
5819;SDS011;2936;47.348;9.640;2022-07-23T07:41:33;7.33;;;6.57;;
5819;SDS011;2936;47.348;9.640;2022-07-23T07:44:00;10.77;;;6.70;;
5819;SDS011;2936;47.348;9.640;2022-07-23T07:46:28;9.57;;;6.50;;
5819;SDS011;2936;47.348;9.640;2022-07-23T07:48:55;8.23;;;7.50;;
5819;SDS011;2936;47.348;9.640;2022-07-23T07:51:23;9.93;;;7.53;;
5819;SDS011;2936;47.348;9.640;2022-07-23T07:53:50;9.13;;;8.13;;
5819;SDS011;2936;47.348;9.640;2022-07-23T07:56:17;7.93;;;7.23;;
5819;SDS011;2936;47.348;9.640;2022-07-23T07:58:46;8.20;;;7.50;;
5819;SDS011;2936;47.348;9.640;2022-07-23T08:01:14;8.73;;;7.77;;
5819;SDS011;2936;47.348;9.640;2022-07-23T08:03:42;9.03;;;8.13;;
5819;SDS011;2936;47.348;9.640;2022-07-23T08:06:09;11.87;;;8.50;;
5819;SDS011;2936;47.348;9.640;2022-07-23T08:08:36;11.77;;;9.00;;
5819;SDS011;2936;47.348;9.640;2022-07-23T08:11:04;9.00;;;8.20;;
5819;SDS011;2936;47.348;9.640;2022-07-23T08:13:31;9.83;;;8.83;;
5819;SDS011;2936;47.348;9.640;2022-07-23T08:16:00;11.67;;;9.07;;
5819;SDS011;2936;47.348;9.640;2022-07-23T08:18:28;9.07;;;8.20;;
5819;SDS011;2936;47.348;9.640;2022-07-23T08:20:55;11.23;;;8.80;;
5819;SDS011;2936;47.348;9.640;2022-07-23T08:23:22;11.27;;;8.00;;
5819;SDS011;2936;47.348;9.640;2022-07-23T08:25:50;10.37;;;8.43;;
5819;SDS011;2936;47.348;9.640;2022-07-23T08:28:17;9.00;;;8.20;;
5819;SDS011;2936;47.348;9.640;2022-07-23T08:30:45;9.50;;;8.43;;
5819;SDS011;2936;47.348;9.640;2022-07-23T08:33:15;10.17;;;9.17;;
5819;SDS011;2936;47.348;9.640;2022-07-23T08:35:43;8.80;;;8.00;;
5819;SDS011;2936;47.348;9.640;2022-07-23T08:38:12;9.93;;;8.73;;
5819;SDS011;2936;47.348;9.640;2022-07-23T08:40:41;9.90;;;8.90;;
5819;SDS011;2936;47.348;9.640;2022-07-23T08:43:10;9.50;;;8.23;;
5819;SDS011;2936;47.348;9.640;2022-07-23T08:45:38;8.63;;;7.70;;
5819;SDS011;2936;47.348;9.640;2022-07-23T08:48:07;14.70;;;7.83;;
5819;SDS011;2936;47.348;9.640;2022-07-23T08:50:36;10.00;;;8.20;;
5819;SDS011;2936;47.348;9.640;2022-07-23T08:53:06;17.13;;;9.07;;
5819;SDS011;2936;47.348;9.640;2022-07-23T08:55:34;9.63;;;8.73;;
5819;SDS011;2936;47.348;9.640;2022-07-23T08:58:02;9.43;;;8.30;;
5819;SDS011;2936;47.348;9.640;2022-07-23T09:00:29;10.50;;;8.87;;
5819;SDS011;2936;47.348;9.640;2022-07-23T09:02:57;8.97;;;8.20;;
5819;SDS011;2936;47.348;9.640;2022-07-23T09:05:24;10.60;;;8.53;;
5819;SDS011;2936;47.348;9.640;2022-07-23T09:08:06;10.40;;;9.00;;
5819;SDS011;2936;47.348;9.640;2022-07-23T09:10:44;9.33;;;8.53;;
5819;SDS011;2936;47.348;9.640;2022-07-23T09:13:25;10.50;;;9.00;;
5819;SDS011;2936;47.348;9.640;2022-07-23T09:15:53;10.90;;;9.03;;
5819;SDS011;2936;47.348;9.640;2022-07-23T09:18:27;9.80;;;8.80;;
5819;SDS011;2936;47.348;9.640;2022-07-23T09:21:04;10.20;;;9.20;;
5819;SDS011;2936;47.348;9.640;2022-07-23T09:23:37;12.60;;;8.53;;
5819;SDS011;2936;47.348;9.640;2022-07-23T09:28:51;10.73;;;8.02;;
5819;SDS011;2936;47.348;9.640;2022-07-23T09:31:19;12.13;;;8.77;;
5819;SDS011;2936;47.348;9.640;2022-07-23T09:33:46;10.33;;;9.33;;
5819;SDS011;2936;47.348;9.640;2022-07-23T09:36:14;11.70;;;9.33;;
5819;SDS011;2936;47.348;9.640;2022-07-23T09:38:52;9.57;;;8.73;;
5819;SDS011;2936;47.348;9.640;2022-07-23T09:41:19;10.50;;;9.40;;
5819;SDS011;2936;47.348;9.640;2022-07-23T09:43:46;12.97;;;9.47;;
5819;SDS011;2936;47.348;9.640;2022-07-23T09:46:20;13.83;;;9.07;;
5819;SDS011;2936;47.348;9.640;2022-07-23T09:48:49;9.97;;;9.10;;
5819;SDS011;2936;47.348;9.640;2022-07-23T09:51:17;9.47;;;8.47;;
5819;SDS011;2936;47.348;9.640;2022-07-23T09:53:48;11.13;;;9.90;;
5819;SDS011;2936;47.348;9.640;2022-07-23T09:56:17;11.83;;;10.57;;
5819;SDS011;2936;47.348;9.640;2022-07-23T09:58:45;11.13;;;9.20;;
5819;SDS011;2936;47.348;9.640;2022-07-23T10:01:14;10.30;;;9.40;;
5819;SDS011;2936;47.348;9.640;2022-07-23T10:03:43;11.77;;;10.53;;
5819;SDS011;2936;47.348;9.640;2022-07-23T10:06:12;11.90;;;9.40;;
5819;SDS011;2936;47.348;9.640;2022-07-23T10:08:40;11.40;;;9.10;;
5819;SDS011;2936;47.348;9.640;2022-07-23T10:11:09;8.97;;;8.17;;
5819;SDS011;2936;47.348;9.640;2022-07-23T10:13:41;9.27;;;8.30;;
5819;SDS011;2936;47.348;9.640;2022-07-23T10:16:22;10.47;;;9.10;;
5819;SDS011;2936;47.348;9.640;2022-07-23T10:18:49;11.50;;;8.73;;
5819;SDS011;2936;47.348;9.640;2022-07-23T10:21:25;19.33;;;8.57;;
5819;SDS011;2936;47.348;9.640;2022-07-23T10:24:04;176.37;;;18.33;;
5819;SDS011;2936;47.348;9.640;2022-07-23T10:26:36;10.27;;;8.70;;
5819;SDS011;2936;47.348;9.640;2022-07-23T10:29:10;10.80;;;9.70;;
5819;SDS011;2936;47.348;9.640;2022-07-23T10:31:42;11.80;;;9.37;;
5819;SDS011;2936;47.348;9.640;2022-07-23T10:34:16;12.77;;;8.80;;
5819;SDS011;2936;47.348;9.640;2022-07-23T10:36:47;10.27;;;8.97;;
5819;SDS011;2936;47.348;9.640;2022-07-23T10:39:18;13.43;;;9.30;;
5819;SDS011;2936;47.348;9.640;2022-07-23T10:41:46;11.20;;;9.27;;
5819;SDS011;2936;47.348;9.640;2022-07-23T10:44:16;9.50;;;8.57;;
5819;SDS011;2936;47.348;9.640;2022-07-23T10:46:54;8.20;;;7.60;;
5819;SDS011;2936;47.348;9.640;2022-07-23T10:49:38;10.53;;;8.13;;
5819;SDS011;2936;47.348;9.640;2022-07-23T10:52:16;12.30;;;10.47;;
5819;SDS011;2936;47.348;9.640;2022-07-23T10:54:45;12.70;;;10.40;;
5819;SDS011;2936;47.348;9.640;2022-07-23T10:57:13;12.70;;;9.90;;
5819;SDS011;2936;47.348;9.640;2022-07-23T11:02:29;10.07;;;9.07;;
5819;SDS011;2936;47.348;9.640;2022-07-23T11:04:59;12.20;;;8.70;;
5819;SDS011;2936;47.348;9.640;2022-07-23T11:07:26;15.53;;;8.97;;
5819;SDS011;2936;47.348;9.640;2022-07-23T11:09:54;9.37;;;8.40;;
5819;SDS011;2936;47.348;9.640;2022-07-23T11:12:31;10.67;;;8.33;;
5819;SDS011;2936;47.348;9.640;2022-07-23T11:15:04;9.53;;;8.30;;
5819;SDS011;2936;47.348;9.640;2022-07-23T11:17:34;7.00;;;6.50;;
5819;SDS011;2936;47.348;9.640;2022-07-23T11:22:47;7.10;;;6.50;;
5819;SDS011;2936;47.348;9.640;2022-07-23T11:25:28;6.90;;;6.23;;
5819;SDS011;2936;47.348;9.640;2022-07-23T11:28:07;8.80;;;7.37;;
5819;SDS011;2936;47.348;9.640;2022-07-23T11:30:39;6.90;;;6.30;;
5819;SDS011;2936;47.348;9.640;2022-07-23T11:36:02;8.20;;;7.30;;
5819;SDS011;2936;47.348;9.640;2022-07-23T11:38:30;7.97;;;7.17;;
5819;SDS011;2936;47.348;9.640;2022-07-23T11:40:58;7.70;;;7.00;;
5819;SDS011;2936;47.348;9.640;2022-07-23T11:43:26;7.70;;;7.00;;
5819;SDS011;2936;47.348;9.640;2022-07-23T11:45:56;8.32;;;6.78;;
5819;SDS011;2936;47.348;9.640;2022-07-23T11:48:24;8.23;;;7.40;;
5819;SDS011;2936;47.348;9.640;2022-07-23T11:50:52;8.60;;;7.73;;
5819;SDS011;2936;47.348;9.640;2022-07-23T11:53:25;7.67;;;6.87;;
5819;SDS011;2936;47.348;9.640;2022-07-23T11:55:53;7.70;;;7.00;;
5819;SDS011;2936;47.348;9.640;2022-07-23T11:58:21;6.97;;;6.27;;
5819;SDS011;2936;47.348;9.640;2022-07-23T12:00:48;6.80;;;5.93;;
5819;SDS011;2936;47.348;9.640;2022-07-23T12:03:17;6.77;;;6.37;;
5819;SDS011;2936;47.348;9.640;2022-07-23T12:05:45;7.10;;;6.50;;
5819;SDS011;2936;47.348;9.640;2022-07-23T12:08:12;6.50;;;6.00;;
5819;SDS011;2936;47.348;9.640;2022-07-23T12:10:42;7.50;;;6.83;;
5819;SDS011;2936;47.348;9.640;2022-07-23T12:13:10;7.73;;;6.93;;
5819;SDS011;2936;47.348;9.640;2022-07-23T12:15:38;6.70;;;6.13;;
5819;SDS011;2936;47.348;9.640;2022-07-23T12:18:07;7.43;;;6.73;;
5819;SDS011;2936;47.348;9.640;2022-07-23T12:20:35;9.27;;;6.63;;
5819;SDS011;2936;47.348;9.640;2022-07-23T12:23:03;7.47;;;6.57;;
5819;SDS011;2936;47.348;9.640;2022-07-23T12:25:32;7.60;;;6.80;;
5819;SDS011;2936;47.348;9.640;2022-07-23T12:28:02;6.87;;;6.27;;
5819;SDS011;2936;47.348;9.640;2022-07-23T12:30:31;7.57;;;6.87;;
5819;SDS011;2936;47.348;9.640;2022-07-23T12:32:58;7.67;;;7.07;;
5819;SDS011;2936;47.348;9.640;2022-07-23T12:35:30;8.43;;;7.73;;
5819;SDS011;2936;47.348;9.640;2022-07-23T12:37:59;8.50;;;7.80;;
5819;SDS011;2936;47.348;9.640;2022-07-23T12:40:28;8.30;;;7.50;;
5819;SDS011;2936;47.348;9.640;2022-07-23T12:42:56;8.97;;;7.87;;
5819;SDS011;2936;47.348;9.640;2022-07-23T12:45:26;7.63;;;6.93;;
5819;SDS011;2936;47.348;9.640;2022-07-23T12:47:58;10.63;;;8.27;;
5819;SDS011;2936;47.348;9.640;2022-07-23T12:50:37;8.40;;;7.30;;
5819;SDS011;2936;47.348;9.640;2022-07-23T12:53:05;8.80;;;7.93;;
5819;SDS011;2936;47.348;9.640;2022-07-23T12:55:33;7.83;;;7.20;;
5819;SDS011;2936;47.348;9.640;2022-07-23T12:58:07;8.77;;;7.87;;
5819;SDS011;2936;47.348;9.640;2022-07-23T13:03:35;9.03;;;7.67;;
5819;SDS011;2936;47.348;9.640;2022-07-23T13:06:04;8.63;;;7.63;;
5819;SDS011;2936;47.348;9.640;2022-07-23T13:08:32;7.97;;;7.17;;
5819;SDS011;2936;47.348;9.640;2022-07-23T13:11:01;9.17;;;8.10;;
5819;SDS011;2936;47.348;9.640;2022-07-23T13:13:29;8.27;;;7.57;;
5819;SDS011;2936;47.348;9.640;2022-07-23T13:15:57;8.17;;;7.33;;
5819;SDS011;2936;47.348;9.640;2022-07-23T13:18:25;8.30;;;7.50;;
5819;SDS011;2936;47.348;9.640;2022-07-23T13:20:54;9.10;;;8.23;;
5819;SDS011;2936;47.348;9.640;2022-07-23T13:23:22;8.33;;;7.63;;
5819;SDS011;2936;47.348;9.640;2022-07-23T13:25:49;11.00;;;8.60;;
5819;SDS011;2936;47.348;9.640;2022-07-23T13:28:17;12.40;;;8.33;;
5819;SDS011;2936;47.348;9.640;2022-07-23T13:30:45;9.63;;;8.60;;
5819;SDS011;2936;47.348;9.640;2022-07-23T13:33:14;9.30;;;8.30;;
5819;SDS011;2936;47.348;9.640;2022-07-23T13:35:42;11.80;;;9.10;;
5819;SDS011;2936;47.348;9.640;2022-07-23T13:38:11;8.97;;;8.17;;
5819;SDS011;2936;47.348;9.640;2022-07-23T13:40:39;11.17;;;8.00;;
5819;SDS011;2936;47.348;9.640;2022-07-23T13:43:07;8.57;;;7.80;;
5819;SDS011;2936;47.348;9.640;2022-07-23T13:45:35;9.17;;;8.27;;
5819;SDS011;2936;47.348;9.640;2022-07-23T13:48:03;8.77;;;7.97;;
5819;SDS011;2936;47.348;9.640;2022-07-23T13:50:30;9.07;;;8.27;;
5819;SDS011;2936;47.348;9.640;2022-07-23T13:53:00;9.30;;;7.80;;
5819;SDS011;2936;47.348;9.640;2022-07-23T13:55:29;9.00;;;8.20;;
5819;SDS011;2936;47.348;9.640;2022-07-23T13:57:56;9.37;;;7.93;;
5819;SDS011;2936;47.348;9.640;2022-07-23T14:00:24;9.13;;;8.30;;
5819;SDS011;2936;47.348;9.640;2022-07-23T14:02:51;9.10;;;8.30;;
5819;SDS011;2936;47.348;9.640;2022-07-23T14:05:19;10.63;;;7.90;;
5819;SDS011;2936;47.348;9.640;2022-07-23T14:07:46;9.20;;;8.20;;
5819;SDS011;2936;47.348;9.640;2022-07-23T14:10:15;9.13;;;8.33;;
5819;SDS011;2936;47.348;9.640;2022-07-23T14:12:44;8.80;;;8.00;;
5819;SDS011;2936;47.348;9.640;2022-07-23T14:15:13;9.60;;;7.80;;
5819;SDS011;2936;47.348;9.640;2022-07-23T14:17:42;11.60;;;8.57;;
5819;SDS011;2936;47.348;9.640;2022-07-23T14:20:09;9.40;;;8.40;;
5819;SDS011;2936;47.348;9.640;2022-07-23T14:22:37;10.00;;;9.10;;
5819;SDS011;2936;47.348;9.640;2022-07-23T14:25:05;8.97;;;8.27;;
5819;SDS011;2936;47.348;9.640;2022-07-23T14:27:33;12.57;;;8.77;;
5819;SDS011;2936;47.348;9.640;2022-07-23T14:30:02;10.33;;;9.13;;
5819;SDS011;2936;47.348;9.640;2022-07-23T14:32:29;10.10;;;8.97;;
5819;SDS011;2936;47.348;9.640;2022-07-23T14:34:57;10.83;;;9.53;;
5819;SDS011;2936;47.348;9.640;2022-07-23T14:37:24;8.90;;;8.10;;
5819;SDS011;2936;47.348;9.640;2022-07-23T14:39:52;9.20;;;8.40;;
5819;SDS011;2936;47.348;9.640;2022-07-23T14:42:19;10.40;;;8.80;;
5819;SDS011;2936;47.348;9.640;2022-07-23T14:44:46;10.37;;;9.20;;
5819;SDS011;2936;47.348;9.640;2022-07-23T14:47:15;9.90;;;8.90;;
5819;SDS011;2936;47.348;9.640;2022-07-23T14:49:43;9.37;;;8.47;;
5819;SDS011;2936;47.348;9.640;2022-07-23T14:52:10;9.17;;;8.37;;
5819;SDS011;2936;47.348;9.640;2022-07-23T14:54:38;13.43;;;9.20;;
5819;SDS011;2936;47.348;9.640;2022-07-23T14:57:05;9.70;;;8.70;;
5819;SDS011;2936;47.348;9.640;2022-07-23T14:59:34;10.40;;;9.50;;
5819;SDS011;2936;47.348;9.640;2022-07-23T15:02:01;9.37;;;8.57;;
5819;SDS011;2936;47.348;9.640;2022-07-23T15:04:30;11.07;;;8.67;;
5819;SDS011;2936;47.348;9.640;2022-07-23T15:06:58;8.20;;;7.60;;
5819;SDS011;2936;47.348;9.640;2022-07-23T15:09:25;9.30;;;8.03;;
5819;SDS011;2936;47.348;9.640;2022-07-23T15:11:52;9.00;;;8.10;;
5819;SDS011;2936;47.348;9.640;2022-07-23T15:14:20;8.93;;;8.13;;
5819;SDS011;2936;47.348;9.640;2022-07-23T15:16:47;8.47;;;7.87;;
5819;SDS011;2936;47.348;9.640;2022-07-23T15:19:15;12.23;;;9.63;;
5819;SDS011;2936;47.348;9.640;2022-07-23T15:21:43;9.30;;;8.47;;
5819;SDS011;2936;47.348;9.640;2022-07-23T15:24:11;9.17;;;8.33;;
5819;SDS011;2936;47.348;9.640;2022-07-23T15:26:38;10.40;;;9.30;;
5819;SDS011;2936;47.348;9.640;2022-07-23T15:29:06;9.67;;;8.87;;